createdAt,value
2019-05-17T00:00:28.452Z,8.50
2019-05-17T00:02:57.209Z,8.30
2019-05-17T00:05:26.527Z,8.10
2019-05-17T00:07:56.671Z,8.47
2019-05-17T00:10:26.464Z,8.70
2019-05-17T00:12:56.397Z,8.03
2019-05-17T00:15:27.365Z,8.80
2019-05-17T00:17:57.101Z,8.60
2019-05-17T00:20:26.951Z,8.77
2019-05-17T00:22:57.239Z,8.90
2019-05-17T00:25:27.383Z,8.27
2019-05-17T00:27:56.372Z,9.50
2019-05-17T00:30:26.540Z,10.00
2019-05-17T00:32:56.915Z,10.07
2019-05-17T00:35:26.793Z,9.83
2019-05-17T00:37:57.021Z,9.97
2019-05-17T00:40:27.033Z,10.40
2019-05-17T00:42:57.059Z,10.00
2019-05-17T00:45:26.773Z,9.43
2019-05-17T00:47:57.280Z,9.53
2019-05-17T00:50:27.519Z,10.20
2019-05-17T00:52:56.751Z,9.23
2019-05-17T00:55:26.824Z,10.47
2019-05-17T00:57:56.482Z,9.93
2019-05-17T01:00:27.715Z,10.67
2019-05-17T01:02:57.210Z,11.07
2019-05-17T01:05:27.506Z,11.23
2019-05-17T01:07:57.355Z,10.73
2019-05-17T01:10:27.180Z,10.73
2019-05-17T01:12:57.513Z,11.00
2019-05-17T01:15:27.314Z,11.73
2019-05-17T01:17:56.887Z,12.33
2019-05-17T01:20:27.586Z,12.50
2019-05-17T01:22:56.703Z,11.50
2019-05-17T01:25:27.153Z,10.73
2019-05-17T01:27:56.368Z,11.83
2019-05-17T01:30:26.639Z,10.73
2019-05-17T01:32:57.049Z,10.73
2019-05-17T01:35:26.595Z,11.10
2019-05-17T01:37:56.502Z,11.70
2019-05-17T01:40:26.482Z,11.43
2019-05-17T01:42:55.461Z,13.47
2019-05-17T01:45:23.984Z,14.10
2019-05-17T01:47:52.442Z,12.20
2019-05-17T01:50:21.468Z,12.10
2019-05-17T01:52:50.561Z,11.83
2019-05-17T01:55:19.353Z,13.00
2019-05-17T01:57:48.516Z,11.97
2019-05-17T02:00:17.850Z,10.30
2019-05-17T02:02:48.139Z,10.10
2019-05-17T02:05:17.454Z,11.03
2019-05-17T02:07:46.748Z,11.37
2019-05-17T02:10:16.865Z,10.77
2019-05-17T02:12:48.771Z,9.93
2019-05-17T02:15:16.972Z,11.33
2019-05-17T02:17:46.934Z,11.30
2019-05-17T02:20:17.037Z,11.80
2019-05-17T02:22:47.428Z,11.27
2019-05-17T02:25:17.057Z,11.73
2019-05-17T02:27:45.684Z,12.10
2019-05-17T02:30:14.898Z,13.10
2019-05-17T02:32:43.743Z,13.03
2019-05-17T02:35:14.355Z,13.13
2019-05-17T02:37:43.761Z,12.37
2019-05-17T02:40:14.861Z,10.83
2019-05-17T02:42:43.869Z,11.53
2019-05-17T02:45:13.455Z,11.47
2019-05-17T02:47:43.742Z,10.87
2019-05-17T02:50:13.683Z,11.63
2019-05-17T02:52:43.642Z,11.60
2019-05-17T02:55:13.942Z,11.43
2019-05-17T02:57:43.615Z,11.90
2019-05-17T03:00:13.866Z,12.03
2019-05-17T03:02:43.837Z,11.10
2019-05-17T03:05:13.970Z,10.63
2019-05-17T03:07:44.031Z,11.70
2019-05-17T03:10:23.044Z,13.37
2019-05-17T03:12:44.435Z,12.87
2019-05-17T03:15:12.903Z,13.53
2019-05-17T03:17:43.452Z,11.73
2019-05-17T03:20:13.171Z,12.20
2019-05-17T03:22:44.042Z,12.77
2019-05-17T03:25:13.701Z,13.37
2019-05-17T03:27:42.980Z,13.23
2019-05-17T03:30:18.217Z,13.80
2019-05-17T03:32:48.581Z,14.67
2019-05-17T03:35:17.645Z,14.73
2019-05-17T03:37:46.104Z,14.17
2019-05-17T03:40:35.074Z,15.23
2019-05-17T03:42:46.174Z,13.90
2019-05-17T03:45:15.429Z,14.87
2019-05-17T03:47:44.982Z,15.67
2019-05-17T03:50:13.820Z,15.27
2019-05-17T03:52:44.511Z,15.73
2019-05-17T03:55:13.343Z,15.77
2019-05-17T03:57:43.982Z,16.03
2019-05-17T04:00:13.891Z,16.07
2019-05-17T04:02:44.464Z,15.77
2019-05-17T04:05:13.031Z,16.90
2019-05-17T04:07:43.478Z,17.00
2019-05-17T04:10:15.153Z,16.50
2019-05-17T04:12:44.155Z,16.53
2019-05-17T04:15:13.492Z,16.43
2019-05-17T04:17:43.916Z,15.87
2019-05-17T04:20:13.590Z,15.00
2019-05-17T04:22:44.102Z,17.10
2019-05-17T04:25:13.444Z,17.23
2019-05-17T04:27:43.590Z,16.77
2019-05-17T04:30:12.596Z,17.40
2019-05-17T04:32:44.304Z,18.80
2019-05-17T04:35:13.170Z,17.03
2019-05-17T04:37:44.461Z,16.93
2019-05-17T04:40:14.309Z,16.53
2019-05-17T04:42:44.150Z,16.43
2019-05-17T04:45:13.164Z,16.90
2019-05-17T04:47:44.372Z,17.97
2019-05-17T04:50:13.705Z,18.70
2019-05-17T04:52:43.037Z,17.67
2019-05-17T04:55:13.352Z,16.93
2019-05-17T04:57:43.875Z,16.77
2019-05-17T05:00:13.125Z,17.07
2019-05-17T05:03:03.831Z,19.03
2019-05-17T05:05:32.994Z,17.00
2019-05-17T05:08:02.966Z,16.60
2019-05-17T05:10:33.815Z,18.47
2019-05-17T05:13:03.432Z,17.17
2019-05-17T05:15:44.167Z,18.90
2019-05-17T05:18:13.587Z,17.63
2019-05-17T05:20:43.647Z,15.70
2019-05-17T05:23:13.158Z,16.30
2019-05-17T05:25:43.096Z,15.63
2019-05-17T05:28:11.595Z,16.23
2019-05-17T05:30:41.959Z,15.50
2019-05-17T05:33:09.536Z,17.20
2019-05-17T05:35:37.639Z,17.10
2019-05-17T05:38:05.743Z,18.17
2019-05-17T05:40:34.361Z,17.43
2019-05-17T05:43:03.137Z,19.40
2019-05-17T05:45:32.142Z,18.43
2019-05-17T05:48:01.832Z,20.07
2019-05-17T05:50:32.408Z,21.03
2019-05-17T05:53:01.999Z,20.93
2019-05-17T05:55:32.156Z,21.10
2019-05-17T05:58:02.925Z,19.67
2019-05-17T06:00:33.064Z,19.87
2019-05-17T06:03:04.238Z,22.23
2019-05-17T06:05:32.538Z,21.30
2019-05-17T06:08:02.871Z,21.30
2019-05-17T06:10:32.517Z,20.20
2019-05-17T06:13:03.058Z,22.70
2019-05-17T06:15:32.050Z,20.07
2019-05-17T06:18:02.995Z,20.53
2019-05-17T06:20:32.355Z,22.73
2019-05-17T06:23:02.544Z,21.03
2019-05-17T06:25:33.986Z,21.00
2019-05-17T06:28:01.554Z,21.67
2019-05-17T06:30:32.386Z,19.97
2019-05-17T06:33:03.258Z,19.50
2019-05-17T06:35:52.541Z,19.87
2019-05-17T06:38:22.454Z,20.87
2019-05-17T06:40:52.362Z,20.93
2019-05-17T06:43:21.842Z,20.17
2019-05-17T06:45:52.201Z,19.53
2019-05-17T06:48:22.293Z,20.30
2019-05-17T06:50:51.957Z,18.87
2019-05-17T06:53:21.990Z,20.43
2019-05-17T06:55:50.290Z,20.27
2019-05-17T06:58:18.382Z,20.53
2019-05-17T07:00:46.814Z,20.67
2019-05-17T07:03:14.913Z,19.67
2019-05-17T07:05:44.972Z,19.70
2019-05-17T07:08:13.405Z,20.73
2019-05-17T07:10:41.844Z,19.13
2019-05-17T07:13:10.715Z,18.03
2019-05-17T07:15:47.238Z,18.40
2019-05-17T07:18:10.325Z,18.83
2019-05-17T07:20:39.657Z,18.33
2019-05-17T07:23:10.465Z,19.17
2019-05-17T07:25:39.738Z,19.17
2019-05-17T07:28:10.010Z,18.67
2019-05-17T07:30:40.042Z,17.50
2019-05-17T07:33:10.056Z,17.40
2019-05-17T07:35:39.617Z,15.73
2019-05-17T07:38:10.639Z,14.70
2019-05-17T07:40:39.891Z,14.03
2019-05-17T07:43:13.805Z,14.13
2019-05-17T07:45:40.428Z,14.23
2019-05-17T07:48:09.753Z,13.80
2019-05-17T07:50:39.866Z,13.07
2019-05-17T07:53:10.391Z,11.20
2019-05-17T07:55:39.811Z,11.60
2019-05-17T07:58:10.002Z,10.40
2019-05-17T08:00:40.051Z,9.87
2019-05-17T08:03:12.969Z,10.90
2019-05-17T08:05:40.359Z,10.77
2019-05-17T08:08:09.991Z,9.80
2019-05-17T08:10:41.104Z,10.37
2019-05-17T08:13:25.094Z,9.43
2019-05-17T08:15:39.798Z,10.13
2019-05-17T08:18:10.895Z,9.43
2019-05-17T08:20:40.177Z,9.00
2019-05-17T08:23:10.692Z,11.23
2019-05-17T08:25:52.049Z,8.70
2019-05-17T08:28:11.038Z,9.40
2019-05-17T08:30:40.928Z,8.20
2019-05-17T08:33:10.952Z,8.13
2019-05-17T08:35:40.269Z,10.60
2019-05-17T08:38:10.400Z,10.87
2019-05-17T08:40:40.513Z,9.97
2019-05-17T08:43:09.963Z,9.77
2019-05-17T08:45:40.683Z,9.63
2019-05-17T08:48:09.517Z,9.13
2019-05-17T08:50:40.287Z,9.33
2019-05-17T08:53:10.394Z,9.17
2019-05-17T08:55:40.545Z,9.77
2019-05-17T08:58:10.274Z,8.00
2019-05-17T09:00:40.701Z,8.13
2019-05-17T09:03:10.369Z,9.20
2019-05-17T09:05:41.375Z,8.37
2019-05-17T09:08:10.483Z,7.53
2019-05-17T09:10:40.902Z,7.80
2019-05-17T09:13:12.500Z,6.87
2019-05-17T09:15:39.924Z,7.97
2019-05-17T09:18:09.926Z,7.00
2019-05-17T09:20:40.591Z,7.63
2019-05-17T09:23:09.663Z,7.30
2019-05-17T09:25:39.799Z,7.70
2019-05-17T09:28:09.895Z,7.43
2019-05-17T09:30:40.439Z,7.83
2019-05-17T09:33:08.147Z,8.83
2019-05-17T09:35:36.575Z,8.40
2019-05-17T09:38:04.946Z,9.00
2019-05-17T09:40:33.361Z,8.73
2019-05-17T09:43:01.449Z,8.93
2019-05-17T09:45:30.588Z,9.57
2019-05-17T09:48:00.703Z,9.17
2019-05-17T09:50:29.440Z,8.57
2019-05-17T09:52:59.890Z,8.23
2019-05-17T09:55:29.988Z,9.60
2019-05-17T09:58:00.086Z,8.90
2019-05-17T10:00:29.710Z,8.03
2019-05-17T10:02:59.907Z,9.10
2019-05-17T10:05:31.074Z,8.07
2019-05-17T10:08:00.063Z,7.20
2019-05-17T10:10:28.084Z,6.40
2019-05-17T10:12:56.172Z,6.20
2019-05-17T10:15:24.274Z,5.77
2019-05-17T10:17:52.354Z,5.97
2019-05-17T10:20:20.708Z,6.00
2019-05-17T10:22:50.483Z,5.87
2019-05-17T10:25:20.093Z,6.70
2019-05-17T10:27:49.787Z,6.07
2019-05-17T10:30:20.860Z,5.90
2019-05-17T10:32:50.556Z,5.20
2019-05-17T10:35:19.936Z,5.47
2019-05-17T10:37:50.601Z,5.37
2019-05-17T10:40:20.797Z,5.93
2019-05-17T10:42:50.003Z,5.83
2019-05-17T10:45:19.828Z,5.13
2019-05-17T10:47:50.264Z,5.27
2019-05-17T10:50:20.602Z,4.63
2019-05-17T10:52:48.930Z,4.60
2019-05-17T10:55:19.810Z,4.63
2019-05-17T10:57:49.738Z,4.40
2019-05-17T11:00:19.530Z,4.27
2019-05-17T11:02:47.906Z,3.93
2019-05-17T11:05:17.134Z,4.03
2019-05-17T11:07:45.221Z,4.40
2019-05-17T11:10:13.491Z,4.63
2019-05-17T11:12:41.578Z,4.27
2019-05-17T11:15:11.837Z,4.00
2019-05-17T11:17:39.570Z,3.93
2019-05-17T11:20:09.589Z,4.60
2019-05-17T11:22:37.674Z,4.57
2019-05-17T11:25:06.736Z,4.10
2019-05-17T11:27:35.499Z,3.80
2019-05-17T11:30:04.486Z,4.17
2019-05-17T11:32:32.596Z,4.03
2019-05-17T11:35:01.041Z,4.40
2019-05-17T11:37:29.454Z,4.53
2019-05-17T11:39:57.890Z,4.47
2019-05-17T11:42:25.971Z,3.40
2019-05-17T11:44:54.411Z,3.90
2019-05-17T11:47:22.494Z,3.97
2019-05-17T11:49:50.595Z,3.90
2019-05-17T11:52:18.682Z,4.07
2019-05-17T11:54:46.778Z,6.77
2019-05-17T11:57:14.855Z,4.00
2019-05-17T11:59:43.277Z,3.60
2019-05-17T12:02:11.702Z,3.67
2019-05-17T12:04:40.109Z,3.60
2019-05-17T12:07:08.611Z,4.37
2019-05-17T12:09:37.924Z,3.97
2019-05-17T12:12:08.405Z,4.30
2019-05-17T12:14:36.831Z,4.50
2019-05-17T12:17:05.253Z,4.67
2019-05-17T12:19:36.897Z,4.70
2019-05-17T12:22:03.983Z,4.90
2019-05-17T12:24:32.398Z,4.27
2019-05-17T12:27:00.819Z,4.57
2019-05-17T12:29:29.248Z,4.30
2019-05-17T12:31:57.673Z,4.63
2019-05-17T12:34:26.398Z,4.80
2019-05-17T12:36:55.071Z,5.23
2019-05-17T12:39:23.486Z,4.40
2019-05-17T12:41:51.979Z,4.43
2019-05-17T12:44:20.798Z,4.33
2019-05-17T12:46:49.453Z,4.40
2019-05-17T12:49:17.881Z,4.43
2019-05-17T12:51:46.306Z,4.20
2019-05-17T12:54:14.722Z,4.40
2019-05-17T12:56:43.153Z,3.77
2019-05-17T12:59:11.568Z,4.00
2019-05-17T13:01:40.062Z,4.20
2019-05-17T13:04:08.489Z,3.53
2019-05-17T13:06:36.921Z,3.50
2019-05-17T13:09:05.985Z,3.20
2019-05-17T13:11:34.413Z,3.30
2019-05-17T13:14:03.208Z,3.20
2019-05-17T13:16:32.083Z,3.00
2019-05-17T13:19:00.528Z,2.83
2019-05-17T13:21:29.006Z,2.80
2019-05-17T13:23:57.421Z,3.13
2019-05-17T13:26:26.206Z,3.10
2019-05-17T13:28:54.633Z,3.03
2019-05-17T13:31:23.051Z,2.53
2019-05-17T13:33:51.469Z,2.40
2019-05-17T13:36:19.907Z,2.80
2019-05-17T13:38:48.328Z,3.57
2019-05-17T13:41:16.769Z,3.10
2019-05-17T13:43:45.206Z,3.07
2019-05-17T13:46:13.915Z,2.93
2019-05-17T13:48:42.403Z,3.23
2019-05-17T13:51:10.828Z,2.90
2019-05-17T13:53:39.292Z,2.93
2019-05-17T13:56:07.717Z,2.53
2019-05-17T13:58:36.140Z,3.03
2019-05-17T14:01:04.645Z,2.73
2019-05-17T14:03:33.078Z,2.63
2019-05-17T14:06:01.483Z,2.57
2019-05-17T14:08:29.905Z,3.20
2019-05-17T14:10:58.325Z,2.83
2019-05-17T14:13:26.781Z,3.00
2019-05-17T14:15:55.265Z,2.90
2019-05-17T14:18:23.698Z,2.80
2019-05-17T14:20:52.137Z,2.90
2019-05-17T14:23:20.630Z,2.70
2019-05-17T14:25:49.052Z,3.37
2019-05-17T14:28:17.496Z,3.27
2019-05-17T14:30:45.912Z,2.90
2019-05-17T14:33:14.333Z,2.53
2019-05-17T14:35:42.765Z,2.20
2019-05-17T14:38:11.201Z,2.40
2019-05-17T14:41:04.968Z,2.07
2019-05-17T14:43:09.806Z,2.00
2019-05-17T14:45:38.230Z,2.63
2019-05-17T14:48:06.660Z,2.90
2019-05-17T14:50:35.195Z,3.10
2019-05-17T14:53:03.283Z,3.40
2019-05-17T14:55:31.694Z,3.57
2019-05-17T14:58:00.195Z,3.70
2019-05-17T15:00:28.624Z,3.90
2019-05-17T15:02:57.120Z,3.80
2019-05-17T15:05:25.570Z,3.43
2019-05-17T15:07:53.994Z,2.37
2019-05-17T15:10:22.409Z,1.80
2019-05-17T15:12:50.839Z,2.40
2019-05-17T15:15:25.606Z,2.30
2019-05-17T15:17:49.150Z,3.13
2019-05-17T15:20:17.630Z,2.40
2019-05-17T15:22:46.057Z,2.80
2019-05-17T15:25:14.472Z,2.40
2019-05-17T15:27:42.568Z,2.37
2019-05-17T15:30:11.935Z,1.97
2019-05-17T15:32:40.028Z,2.13
2019-05-17T15:35:08.680Z,1.73
2019-05-17T15:37:37.107Z,1.80
2019-05-17T15:40:06.777Z,1.83
2019-05-17T15:42:43.701Z,2.20
2019-05-17T15:45:06.973Z,2.07
2019-05-17T15:47:35.395Z,2.87
2019-05-17T15:50:06.431Z,2.40
2019-05-17T15:52:34.849Z,2.57
2019-05-17T15:55:04.102Z,2.80
2019-05-17T15:57:32.192Z,2.40
2019-05-17T16:00:00.612Z,2.27
2019-05-17T16:02:29.026Z,2.37
2019-05-17T16:04:57.453Z,2.00
2019-05-17T16:07:25.877Z,2.30
2019-05-17T16:09:54.304Z,2.17
2019-05-17T16:12:22.724Z,2.40
2019-05-17T16:14:51.161Z,2.03
2019-05-17T16:17:19.574Z,3.13
2019-05-17T16:19:48.007Z,2.80
2019-05-17T16:22:16.434Z,3.20
2019-05-17T16:24:44.897Z,3.00
2019-05-17T16:27:13.316Z,2.90
2019-05-17T16:29:41.756Z,2.93
2019-05-17T16:32:10.170Z,4.07
2019-05-17T16:34:38.606Z,2.93
2019-05-17T16:37:07.022Z,3.63
2019-05-17T16:39:35.458Z,3.40
2019-05-17T16:42:03.605Z,3.50
2019-05-17T16:44:32.042Z,3.33
2019-05-17T16:47:00.466Z,3.87
2019-05-17T16:49:28.906Z,3.50
2019-05-17T16:51:57.381Z,3.20
2019-05-17T16:54:25.815Z,4.00
2019-05-17T16:56:54.258Z,3.93
2019-05-17T16:59:22.384Z,3.20
2019-05-17T17:01:50.885Z,3.23
2019-05-17T17:04:19.555Z,3.03
2019-05-17T17:06:47.980Z,3.03
2019-05-17T17:09:16.066Z,2.70
2019-05-17T17:11:45.730Z,2.30
2019-05-17T17:14:14.026Z,2.20
2019-05-17T17:16:42.130Z,2.20
2019-05-17T17:19:10.922Z,1.93
2019-05-17T17:21:39.010Z,2.57
2019-05-17T17:24:07.441Z,2.83
2019-05-17T17:26:35.866Z,3.07
2019-05-17T17:29:04.362Z,2.97
2019-05-17T17:31:32.794Z,2.87
2019-05-17T17:34:01.220Z,2.57
2019-05-17T17:36:29.722Z,3.33
2019-05-17T17:38:58.142Z,3.27
2019-05-17T17:41:26.878Z,9.93
2019-05-17T17:43:58.767Z,11.67
2019-05-17T17:46:25.730Z,5.97
2019-05-17T17:48:54.222Z,6.27
2019-05-17T17:51:22.728Z,3.40
2019-05-17T17:53:51.710Z,7.17
2019-05-17T17:56:20.492Z,12.00
2019-05-17T17:58:49.194Z,10.83
2019-05-17T18:01:17.627Z,6.80
2019-05-17T18:03:46.052Z,5.17
2019-05-17T18:06:14.483Z,4.00
2019-05-17T18:08:42.892Z,3.50
2019-05-17T18:11:11.325Z,3.63
2019-05-17T18:13:40.040Z,4.20
2019-05-17T18:16:08.579Z,4.03
2019-05-17T18:18:37.307Z,4.30
2019-05-17T18:21:06.292Z,4.60
2019-05-17T18:23:36.585Z,3.90
2019-05-17T18:26:05.433Z,4.17
2019-05-17T18:28:33.918Z,4.23
2019-05-17T18:31:02.410Z,4.13
2019-05-17T18:33:30.960Z,4.30
2019-05-17T18:35:59.393Z,4.00
2019-05-17T18:38:30.924Z,3.73
2019-05-17T18:40:59.349Z,3.83
2019-05-17T18:43:28.091Z,4.03
2019-05-17T18:45:56.783Z,4.00
2019-05-17T18:48:26.374Z,3.73
2019-05-17T18:50:54.454Z,3.80
2019-05-17T18:53:22.881Z,4.07
2019-05-17T18:55:51.333Z,4.97
2019-05-17T18:58:19.764Z,4.80
2019-05-17T19:00:48.335Z,4.87
2019-05-17T19:03:36.356Z,3.40
2019-05-17T19:06:04.955Z,3.10
2019-05-17T19:08:33.383Z,3.60
2019-05-17T19:11:01.808Z,3.40
2019-05-17T19:13:30.229Z,3.80
2019-05-17T19:15:58.936Z,3.60
2019-05-17T19:18:27.030Z,3.90
2019-05-17T19:20:55.467Z,3.40
2019-05-17T19:23:26.237Z,3.50
2019-05-17T19:25:54.660Z,4.43
2019-05-17T19:28:23.090Z,3.43
2019-05-17T19:30:51.620Z,4.50
2019-05-17T19:33:20.053Z,4.10
2019-05-17T19:35:48.478Z,4.93
2019-05-17T19:38:16.890Z,4.60
2019-05-17T19:40:45.327Z,5.30
2019-05-17T19:43:14.099Z,5.90
2019-05-17T19:45:42.579Z,5.43
2019-05-17T19:48:11.035Z,8.40
2019-05-17T19:50:39.174Z,7.60
2019-05-17T19:53:07.276Z,7.20
2019-05-17T19:55:35.371Z,7.27
2019-05-17T19:58:04.095Z,5.97
2019-05-17T20:00:32.604Z,7.13
2019-05-17T20:03:00.756Z,6.40
2019-05-17T20:05:29.189Z,6.90
2019-05-17T20:07:57.921Z,6.70
2019-05-17T20:10:27.070Z,7.27
2019-05-17T20:12:55.898Z,6.30
2019-05-17T20:15:34.175Z,6.97
2019-05-17T20:17:54.603Z,9.87
2019-05-17T20:20:23.018Z,8.03
2019-05-17T20:22:51.461Z,6.90
2019-05-17T20:25:20.630Z,7.53
2019-05-17T20:27:49.056Z,6.93
2019-05-17T20:30:18.917Z,6.90
2019-05-17T20:32:47.027Z,5.40
2019-05-17T20:35:17.935Z,5.40
2019-05-17T20:37:46.223Z,6.53
2019-05-17T20:40:16.005Z,6.90
2019-05-17T20:42:44.102Z,7.20
2019-05-17T20:45:12.249Z,7.90
2019-05-17T20:47:40.686Z,8.07
2019-05-17T20:50:10.201Z,8.00
2019-05-17T20:52:38.619Z,7.80
2019-05-17T20:55:07.801Z,8.17
2019-05-17T20:57:36.323Z,8.03
2019-05-17T21:00:28.506Z,8.43
2019-05-17T21:02:56.936Z,7.47
2019-05-17T21:05:25.360Z,6.60
2019-05-17T21:07:53.789Z,6.30
2019-05-17T21:10:21.881Z,7.03
2019-05-17T21:12:49.969Z,7.73
2019-05-17T21:15:18.048Z,8.37
2019-05-17T21:17:46.169Z,7.77
2019-05-17T21:20:14.398Z,7.53
2019-05-17T21:22:42.767Z,7.30
2019-05-17T21:25:11.445Z,7.43
2019-05-17T21:27:39.876Z,6.73
2019-05-17T21:30:08.642Z,6.40
2019-05-17T21:32:36.743Z,6.20
2019-05-17T21:35:05.576Z,6.13
2019-05-17T21:37:34.033Z,7.17
2019-05-17T21:40:02.921Z,6.93
2019-05-17T21:42:31.014Z,7.50
2019-05-17T21:44:59.434Z,7.47
2019-05-17T21:47:28.211Z,8.13
2019-05-17T21:49:56.680Z,8.40
2019-05-17T21:52:25.115Z,8.60
2019-05-17T21:54:53.436Z,9.40
2019-05-17T21:57:21.853Z,8.27
2019-05-17T21:59:49.949Z,8.10
2019-05-17T22:02:18.374Z,7.47
2019-05-17T22:04:46.813Z,7.60
2019-05-17T22:07:15.244Z,7.37
2019-05-17T22:09:43.417Z,7.30
2019-05-17T22:12:13.372Z,6.23
2019-05-17T22:14:41.469Z,7.27
2019-05-17T22:17:09.726Z,6.53
2019-05-17T22:19:37.809Z,6.30
2019-05-17T22:22:05.943Z,7.23
2019-05-17T22:24:34.072Z,7.17
2019-05-17T22:27:02.145Z,7.97
2019-05-17T22:29:30.636Z,7.03
2019-05-17T22:31:58.727Z,7.17
2019-05-17T22:34:27.143Z,7.03
2019-05-17T22:36:55.570Z,6.77
2019-05-17T22:39:24.002Z,7.77
2019-05-17T22:41:52.086Z,8.33
2019-05-17T22:44:20.177Z,6.97
2019-05-17T22:46:48.264Z,7.60
2019-05-17T22:49:16.600Z,7.20
2019-05-17T22:51:45.095Z,6.80
2019-05-17T22:54:13.526Z,7.57
2019-05-17T22:56:41.937Z,8.00
2019-05-17T22:59:10.658Z,7.40
2019-05-17T23:01:38.741Z,6.60
2019-05-17T23:04:06.825Z,8.13
2019-05-17T23:06:34.916Z,7.83
2019-05-17T23:09:03.042Z,6.60
2019-05-17T23:11:31.440Z,7.13
2019-05-17T23:14:00.203Z,7.20
2019-05-17T23:16:28.615Z,6.43
2019-05-17T23:19:10.078Z,6.50
2019-05-17T23:21:38.666Z,7.20
2019-05-17T23:24:07.417Z,7.70
2019-05-17T23:26:35.570Z,7.03
2019-05-17T23:29:04.367Z,7.17
2019-05-17T23:31:32.839Z,6.20
2019-05-17T23:34:01.255Z,6.50
2019-05-17T23:36:29.339Z,7.77
2019-05-17T23:38:57.749Z,7.13
2019-05-17T23:41:25.841Z,7.80
2019-05-17T23:43:53.933Z,7.23
2019-05-17T23:46:22.589Z,7.20
2019-05-17T23:48:51.006Z,6.80
2019-05-17T23:51:19.112Z,7.83
2019-05-17T23:53:47.523Z,8.17
2019-05-17T23:56:15.957Z,7.40
2019-05-17T23:58:44.037Z,6.50
